createdAt,value
2019-01-15T00:03:54.547Z,7.90
2019-01-15T00:08:49.455Z,7.90
2019-01-15T00:11:16.905Z,7.90
2019-01-15T00:26:00.983Z,7.90
2019-01-15T00:30:55.553Z,7.80
2019-01-15T00:33:23.007Z,7.90
2019-01-15T00:35:50.377Z,7.90
2019-01-15T00:38:17.669Z,7.90
2019-01-15T00:40:45.055Z,7.80
2019-01-15T00:43:12.363Z,7.80
2019-01-15T00:45:39.693Z,7.90
2019-01-15T00:48:07.198Z,7.90
2019-01-15T00:50:34.645Z,7.90
2019-01-15T00:53:02.226Z,7.90
2019-01-15T00:55:29.589Z,7.90
2019-01-15T00:57:56.887Z,7.90
2019-01-15T01:00:24.315Z,7.90
2019-01-15T01:02:51.678Z,7.90
2019-01-15T01:05:19.578Z,7.90
2019-01-15T01:07:46.853Z,7.90
2019-01-15T01:10:14.618Z,7.90
2019-01-15T01:12:42.028Z,7.80
2019-01-15T01:15:10.623Z,7.80
2019-01-15T01:17:38.011Z,7.80
2019-01-15T01:20:06.315Z,7.80
2019-01-15T01:22:33.649Z,7.70
2019-01-15T01:25:01.031Z,7.80
2019-01-15T01:27:28.542Z,7.70
2019-01-15T01:29:55.932Z,7.70
2019-01-15T01:32:23.257Z,7.70
2019-01-15T01:34:51.582Z,7.70
2019-01-15T01:37:18.891Z,7.70
2019-01-15T01:39:46.266Z,7.70
2019-01-15T01:42:13.623Z,7.60
2019-01-15T01:44:41.034Z,7.60
2019-01-15T01:49:35.758Z,7.70
2019-01-15T01:52:03.322Z,7.60
2019-01-15T01:54:30.722Z,7.60
2019-01-15T01:56:58.134Z,7.50
2019-01-15T01:59:25.542Z,7.60
2019-01-15T02:01:53.086Z,7.60
2019-01-15T02:04:20.517Z,7.60
2019-01-15T02:06:47.924Z,7.50
2019-01-15T02:09:15.244Z,7.60
2019-01-15T02:11:42.860Z,7.60
2019-01-15T02:14:10.688Z,7.50
2019-01-15T02:19:05.542Z,7.50
2019-01-15T02:28:55.156Z,7.60
2019-01-15T02:33:49.716Z,7.50
2019-01-15T02:36:16.990Z,7.60
2019-01-15T02:46:06.472Z,7.50
2019-01-15T02:48:33.919Z,7.50
2019-01-15T02:51:01.269Z,7.50
2019-01-15T02:53:28.637Z,7.50
2019-01-15T02:55:56.152Z,7.50
2019-01-15T03:00:50.878Z,7.50
2019-01-15T03:03:18.352Z,7.60
2019-01-15T03:05:45.713Z,7.60
2019-01-15T03:08:13.069Z,7.60
2019-01-15T03:15:35.546Z,7.60
2019-01-15T03:18:03.053Z,7.60
2019-01-15T03:20:30.382Z,7.60
2019-01-15T03:25:24.992Z,7.60
2019-01-15T03:27:52.306Z,7.50
2019-01-15T03:32:51.394Z,7.50
2019-01-15T03:37:46.125Z,7.50
2019-01-15T03:40:16.792Z,7.50
2019-01-15T03:42:45.723Z,7.50
2019-01-15T03:45:13.268Z,7.50
2019-01-15T03:50:08.149Z,7.50
2019-01-15T03:52:35.496Z,7.50
2019-01-15T03:55:04.284Z,7.50
2019-01-15T03:57:31.696Z,7.50
2019-01-15T03:59:59.026Z,7.40
2019-01-15T04:02:27.405Z,7.40
2019-01-15T04:04:54.733Z,7.50
2019-01-15T04:09:49.607Z,7.40
2019-01-15T04:14:44.280Z,7.40
2019-01-15T04:17:13.867Z,7.30
2019-01-15T04:19:41.569Z,7.30
2019-01-15T04:24:36.252Z,7.20
2019-01-15T04:29:31.080Z,7.20
2019-01-15T04:31:59.551Z,7.20
2019-01-15T04:34:26.832Z,7.20
2019-01-15T04:36:56.611Z,7.20
2019-01-15T04:39:23.902Z,7.20
2019-01-15T04:46:46.104Z,7.30
2019-01-15T04:51:40.860Z,7.30
2019-01-15T04:54:08.215Z,7.40
2019-01-15T04:56:35.688Z,7.40
2019-01-15T04:59:03.480Z,7.40
2019-01-15T05:06:25.337Z,7.50
2019-01-15T05:08:52.696Z,7.60
2019-01-15T05:13:47.436Z,7.60
2019-01-15T05:18:42.110Z,7.70
2019-01-15T05:23:36.834Z,7.70
2019-01-15T05:26:04.164Z,7.80
2019-01-15T05:28:31.414Z,7.80
2019-01-15T05:30:58.915Z,7.70
2019-01-15T05:35:53.693Z,7.70
2019-01-15T05:43:15.790Z,7.70
2019-01-15T05:45:45.804Z,7.70
2019-01-15T05:48:17.370Z,7.70
2019-01-15T05:50:52.395Z,7.70
2019-01-15T05:53:19.909Z,7.70
2019-01-15T05:55:47.238Z,7.70
2019-01-15T05:58:14.716Z,7.70
2019-01-15T06:00:42.138Z,7.70
2019-01-15T06:03:09.550Z,7.70
2019-01-15T06:05:36.845Z,7.70
2019-01-15T06:08:04.174Z,7.70
2019-01-15T06:10:31.580Z,7.70
2019-01-15T06:12:59.022Z,7.70
2019-01-15T06:20:21.101Z,7.70
2019-01-15T06:22:48.486Z,7.70
2019-01-15T06:25:16.195Z,7.70
2019-01-15T06:27:43.595Z,7.70
2019-01-15T06:30:12.441Z,7.70
2019-01-15T06:32:39.826Z,7.70
2019-01-15T06:35:07.305Z,7.70
2019-01-15T06:37:34.648Z,7.70
2019-01-15T06:42:29.467Z,7.70
2019-01-15T06:44:56.771Z,7.70
2019-01-15T06:49:51.736Z,7.70
2019-01-15T06:52:19.089Z,7.70
2019-01-15T06:54:46.381Z,7.70
2019-01-15T06:57:13.713Z,7.70
2019-01-15T06:59:41.045Z,7.70
2019-01-15T07:07:03.178Z,7.70
2019-01-15T07:09:30.884Z,7.70
2019-01-15T07:11:58.305Z,7.70
2019-01-15T07:14:25.716Z,7.70
2019-01-15T07:19:20.391Z,7.70
2019-01-15T07:21:48.200Z,7.60
2019-01-15T07:24:15.507Z,7.60
2019-01-15T07:26:42.899Z,7.50
2019-01-15T07:29:10.348Z,7.70
2019-01-15T07:34:04.928Z,7.70
2019-01-15T07:36:32.257Z,7.60
2019-01-15T07:38:59.698Z,7.60
2019-01-15T07:41:27.174Z,7.60
2019-01-15T07:43:54.646Z,7.60
2019-01-15T07:46:21.954Z,7.60
2019-01-15T07:48:49.478Z,7.60
2019-01-15T07:51:16.914Z,7.60
2019-01-15T07:53:44.221Z,7.60
2019-01-15T07:56:11.649Z,7.60
2019-01-15T07:58:39.045Z,7.60
2019-01-15T08:01:07.455Z,7.60
2019-01-15T08:03:35.028Z,7.60
2019-01-15T08:06:02.472Z,7.60
2019-01-15T08:10:57.354Z,7.60
2019-01-15T08:15:52.040Z,7.70
2019-01-15T08:18:19.466Z,7.70
2019-01-15T08:20:46.904Z,7.70
2019-01-15T08:23:14.292Z,7.70
2019-01-15T08:25:41.668Z,7.70
2019-01-15T08:28:09.058Z,7.80
2019-01-15T08:33:04.018Z,7.80
2019-01-15T08:37:58.640Z,7.80
2019-01-15T08:40:25.986Z,7.80
2019-01-15T08:42:53.440Z,7.80
2019-01-15T08:45:20.916Z,7.80
2019-01-15T08:47:53.780Z,7.80
2019-01-15T08:50:23.263Z,7.90
2019-01-15T08:52:50.771Z,7.90
2019-01-15T08:57:45.316Z,7.90
2019-01-15T09:02:40.175Z,7.90
2019-01-15T09:05:07.679Z,7.90
2019-01-15T09:07:35.087Z,7.90
2019-01-15T09:12:30.042Z,7.90
2019-01-15T09:14:57.496Z,7.90
2019-01-15T09:17:24.739Z,7.90
2019-01-15T09:22:19.248Z,8.00
2019-01-15T09:24:46.553Z,8.00
2019-01-15T09:27:13.926Z,8.00
2019-01-15T09:29:41.245Z,8.00
2019-01-15T09:34:35.917Z,8.00
2019-01-15T09:37:04.948Z,8.00
2019-01-15T09:39:32.307Z,8.00
2019-01-15T09:41:59.731Z,8.00
2019-01-15T09:44:33.885Z,8.00
2019-01-15T09:49:23.797Z,8.00
2019-01-15T09:51:51.231Z,8.10
2019-01-15T09:54:18.585Z,8.10
2019-01-15T09:56:45.960Z,8.10
2019-01-15T10:01:41.489Z,8.20
2019-01-15T10:06:36.225Z,8.20
2019-01-15T10:09:08.777Z,8.20
2019-01-15T10:11:36.523Z,8.20
2019-01-15T10:16:31.383Z,8.30
2019-01-15T10:18:58.776Z,8.30
2019-01-15T10:21:26.186Z,8.30
2019-01-15T10:26:21.457Z,8.40
2019-01-15T10:28:48.795Z,8.40
2019-01-15T10:36:34.813Z,8.50
2019-01-15T10:48:52.314Z,8.50
2019-01-15T10:56:14.599Z,8.60
2019-01-15T10:58:41.926Z,8.70
2019-01-15T11:01:12.754Z,8.70
2019-01-15T11:03:40.002Z,8.70
2019-01-15T11:08:34.722Z,8.80
2019-01-15T11:11:02.262Z,8.90
2019-01-15T11:14:56.026Z,9.00
2019-01-15T11:19:47.418Z,9.10
2019-01-15T11:22:14.738Z,9.10
2019-01-15T11:27:11.904Z,9.30
2019-01-15T11:32:06.666Z,9.40
2019-01-15T11:34:34.426Z,9.50
2019-01-15T11:37:01.834Z,9.50
2019-01-15T11:39:29.230Z,9.60
2019-01-15T11:41:56.540Z,9.70
2019-01-15T11:46:51.081Z,9.80
2019-01-15T11:49:18.379Z,9.80
2019-01-15T11:56:40.462Z,9.90
2019-01-15T11:59:08.021Z,9.90
2019-01-15T12:01:48.614Z,9.90
2019-01-15T12:07:25.276Z,10.00
2019-01-15T12:10:07.901Z,10.00
2019-01-15T12:15:24.232Z,10.10
2019-01-15T12:18:26.551Z,10.10
2019-01-15T12:29:41.281Z,10.20
2019-01-15T12:32:40.811Z,10.20
2019-01-15T12:35:35.580Z,10.20
2019-01-15T12:38:24.401Z,10.30
2019-01-15T12:44:10.658Z,10.20
2019-01-15T12:46:56.126Z,10.20
2019-01-15T12:49:45.494Z,10.20
2019-01-15T12:52:44.423Z,10.10
2019-01-15T12:55:37.029Z,10.10
2019-01-15T12:58:32.683Z,10.10
2019-01-15T13:01:26.766Z,10.10
2019-01-15T13:04:13.677Z,10.10
2019-01-15T13:07:15.791Z,10.10
2019-01-15T13:10:05.317Z,10.20
2019-01-15T13:12:43.905Z,10.20
2019-01-15T13:21:05.279Z,10.40
2019-01-15T13:26:36.941Z,10.50
2019-01-15T13:29:35.689Z,10.50
2019-01-15T13:32:22.921Z,10.50
2019-01-15T13:35:12.893Z,10.50
2019-01-15T13:37:58.569Z,10.50
2019-01-15T13:51:07.302Z,10.50
2019-01-15T13:56:32.486Z,10.70
2019-01-15T13:59:22.123Z,10.70
2019-01-15T14:05:01.659Z,10.70
2019-01-15T14:08:03.596Z,10.70
2019-01-15T14:18:20.245Z,10.60
2019-01-15T14:21:27.726Z,10.60
2019-01-15T14:27:25.369Z,10.50
2019-01-15T14:30:10.927Z,10.40
2019-01-15T14:32:50.434Z,10.40
2019-01-15T14:35:31.200Z,10.30
2019-01-15T14:38:18.177Z,13.20
2019-01-15T14:41:14.293Z,11.90
2019-01-15T14:43:59.628Z,11.20
2019-01-15T14:46:58.051Z,10.00
2019-01-15T14:49:56.613Z,9.90
2019-01-15T14:52:37.149Z,9.90
2019-01-15T14:55:19.044Z,9.90
2019-01-15T14:58:04.546Z,9.80
2019-01-15T15:00:50.393Z,9.70
2019-01-15T15:03:35.626Z,9.70
2019-01-15T15:06:28.313Z,10.10
2019-01-15T15:09:14.476Z,9.70
2019-01-15T15:11:52.269Z,11.10
2019-01-15T15:14:37.349Z,10.70
2019-01-15T15:17:23.038Z,12.10
2019-01-15T15:20:09.068Z,9.70
2019-01-15T15:22:58.922Z,9.60
2019-01-15T15:25:54.012Z,9.60
2019-01-15T15:28:39.591Z,9.60
2019-01-15T15:31:42.070Z,9.60
2019-01-15T15:34:47.509Z,12.00
2019-01-15T15:37:32.959Z,9.50
2019-01-15T15:40:25.102Z,9.50
2019-01-15T15:43:12.030Z,9.50
2019-01-15T15:46:13.997Z,9.40
2019-01-15T15:49:13.321Z,9.40
2019-01-15T15:52:09.343Z,9.40
2019-01-15T15:55:14.327Z,8.80
2019-01-15T15:57:57.176Z,9.50
2019-01-15T16:00:47.035Z,9.40
2019-01-15T16:03:42.761Z,9.40
2019-01-15T16:06:28.587Z,12.00
2019-01-15T16:09:14.475Z,10.90
2019-01-15T16:11:53.777Z,11.30
2019-01-15T16:14:52.668Z,9.40
2019-01-15T16:17:48.429Z,9.30
2019-01-15T16:20:27.009Z,9.80
2019-01-15T16:23:12.449Z,12.00
2019-01-15T16:25:55.175Z,9.30
2019-01-15T16:28:39.957Z,9.30
2019-01-15T16:31:39.271Z,9.20
2019-01-15T16:34:25.061Z,9.20
2019-01-15T16:37:12.077Z,9.20
2019-01-15T16:39:51.239Z,9.20
2019-01-15T16:42:38.193Z,9.20
2019-01-15T16:45:39.172Z,9.20
2019-01-15T16:48:24.917Z,9.20
2019-01-15T16:51:11.867Z,9.20
2019-01-15T16:54:04.917Z,11.50
2019-01-15T16:56:57.859Z,9.20
2019-01-15T16:59:53.648Z,9.20
2019-01-15T17:02:33.348Z,10.60
2019-01-15T17:05:20.381Z,9.20
2019-01-15T17:08:05.879Z,9.20
2019-01-15T17:10:52.787Z,9.20
2019-01-15T17:13:52.097Z,9.20
2019-01-15T17:16:33.320Z,9.20
2019-01-15T17:19:15.694Z,9.20
2019-01-15T17:22:01.420Z,9.90
2019-01-15T17:27:57.932Z,9.20
2019-01-15T17:30:50.861Z,9.20
2019-01-15T17:33:53.192Z,9.70
2019-01-15T17:36:55.198Z,9.20
2019-01-15T17:39:34.177Z,9.20
2019-01-15T17:42:29.907Z,11.70
2019-01-15T17:45:20.106Z,9.10
2019-01-15T17:48:25.144Z,9.20
2019-01-15T17:51:32.781Z,9.20
2019-01-15T17:57:38.220Z,9.10
2019-01-15T18:00:45.842Z,9.10
2019-01-15T18:03:38.471Z,9.10
2019-01-15T18:06:24.234Z,11.00
2019-01-15T18:09:26.468Z,9.10
2019-01-15T18:12:11.910Z,12.00
2019-01-15T18:14:57.635Z,9.10
2019-01-15T18:17:47.760Z,11.30
2019-01-15T18:20:23.680Z,9.10
2019-01-15T18:23:18.286Z,10.00
2019-01-15T18:29:45.324Z,9.10
2019-01-15T18:32:38.037Z,7.00
2019-01-15T18:45:16.592Z,8.90
2019-01-15T18:51:17.443Z,9.10
2019-01-15T18:54:19.945Z,9.10
2019-01-15T18:57:09.486Z,9.20
2019-01-15T18:59:53.978Z,9.20
2019-01-15T19:02:39.549Z,9.20
2019-01-15T19:05:25.279Z,9.20
2019-01-15T19:11:02.743Z,9.20
2019-01-15T19:13:50.781Z,9.30
2019-01-15T19:17:03.381Z,12.10
2019-01-15T19:19:46.740Z,9.20
2019-01-15T19:22:34.202Z,9.30
2019-01-15T19:25:23.753Z,9.20
2019-01-15T19:28:15.399Z,9.20
2019-01-15T19:31:14.448Z,9.20
2019-01-15T19:33:54.307Z,9.20
2019-01-15T19:36:45.484Z,9.20
2019-01-15T19:39:32.487Z,9.20
2019-01-15T19:42:25.215Z,9.10
2019-01-15T19:45:10.659Z,9.10
2019-01-15T19:47:55.147Z,9.10
2019-01-15T19:50:48.500Z,9.10
2019-01-15T19:53:34.795Z,9.00
2019-01-15T19:56:24.767Z,9.30
2019-01-15T19:59:29.867Z,9.00
2019-01-15T20:02:25.116Z,9.00
2019-01-15T20:05:10.912Z,9.00
2019-01-15T20:08:13.380Z,9.00
2019-01-15T20:11:19.038Z,9.00
2019-01-15T20:14:04.703Z,8.90
2019-01-15T20:16:51.672Z,8.90
2019-01-15T20:19:41.253Z,8.90
2019-01-15T20:22:24.989Z,8.90
2019-01-15T20:25:24.372Z,8.90
2019-01-15T20:28:14.599Z,8.80
2019-01-15T20:31:07.267Z,8.80
2019-01-15T20:33:54.353Z,8.80
2019-01-15T20:36:49.790Z,8.90
2019-01-15T20:39:42.926Z,8.80
2019-01-15T20:42:28.899Z,8.90
2019-01-15T20:45:14.948Z,8.80
2019-01-15T20:48:14.072Z,8.80
2019-01-15T20:51:04.384Z,8.80
2019-01-15T20:53:43.167Z,8.80
2019-01-15T21:02:04.177Z,8.80
2019-01-15T21:04:56.555Z,8.70
2019-01-15T21:07:46.071Z,8.70
2019-01-15T21:10:31.850Z,8.70
2019-01-15T21:16:17.103Z,8.70
2019-01-15T21:19:19.398Z,8.70
2019-01-15T21:22:18.506Z,8.70
2019-01-15T21:25:20.576Z,8.70
2019-01-15T21:31:02.891Z,8.60
2019-01-15T21:33:55.723Z,8.60
2019-01-15T21:36:45.544Z,8.60
2019-01-15T21:39:29.349Z,8.60
2019-01-15T21:42:22.417Z,8.60
2019-01-15T21:45:15.747Z,8.60
2019-01-15T21:53:28.557Z,8.60
2019-01-15T21:56:22.031Z,8.80
2019-01-15T22:02:05.718Z,8.40
2019-01-15T22:05:01.691Z,8.50
2019-01-15T22:07:51.868Z,8.50
2019-01-15T22:10:37.380Z,8.50
2019-01-15T22:18:58.487Z,8.50
2019-01-15T22:21:45.426Z,8.50
2019-01-15T22:24:30.929Z,8.50
2019-01-15T22:27:24.861Z,8.50
2019-01-15T22:33:01.433Z,8.40
2019-01-15T22:35:46.986Z,8.40
2019-01-15T22:38:39.939Z,8.40
2019-01-15T22:41:32.445Z,8.40
2019-01-15T22:44:17.960Z,8.40
2019-01-15T22:47:04.923Z,8.30
2019-01-15T22:52:53.749Z,8.40
2019-01-15T22:55:41.341Z,8.30
2019-01-15T22:58:31.235Z,8.30
2019-01-15T23:01:21.150Z,8.30
2019-01-15T23:04:08.984Z,8.20
2019-01-15T23:06:53.927Z,8.30
2019-01-15T23:09:58.771Z,8.10
2019-01-15T23:12:47.020Z,8.20
2019-01-15T23:15:39.595Z,8.20
2019-01-15T23:18:26.702Z,8.20
2019-01-15T23:24:20.016Z,8.20
2019-01-15T23:27:07.038Z,8.20
2019-01-15T23:29:56.979Z,8.20
2019-01-15T23:33:03.466Z,8.20
2019-01-15T23:35:50.544Z,8.20
2019-01-15T23:38:40.482Z,8.20
2019-01-15T23:41:26.904Z,8.20
2019-01-15T23:44:13.801Z,8.20
2019-01-15T23:47:06.878Z,8.20
2019-01-15T23:49:53.805Z,8.20
2019-01-15T23:52:44.287Z,8.20
2019-01-15T23:55:24.885Z,8.20
2019-01-15T23:58:01.078Z,8.10
